sensor_id;sensor_type;location;lat;lon;timestamp;P1;durP1;ratioP1;P2;durP2;ratioP2
65461;SDS011;53236;43.666;18.444;2022-07-29T15:04:25;6.63;;;4.63;;
65461;SDS011;53236;43.666;18.444;2022-07-29T15:06:51;7.80;;;4.80;;
65461;SDS011;53236;43.666;18.444;2022-07-29T15:09:17;7.35;;;5.10;;
65461;SDS011;53236;43.666;18.444;2022-07-29T15:11:43;9.55;;;5.20;;
65461;SDS011;53236;43.666;18.444;2022-07-29T15:14:09;5.72;;;4.75;;
65461;SDS011;53236;43.666;18.444;2022-07-29T15:16:35;6.03;;;5.22;;
65461;SDS011;53236;43.666;18.444;2022-07-29T15:19:02;8.35;;;4.72;;
65461;SDS011;53236;43.666;18.444;2022-07-29T15:21:29;7.22;;;5.40;;
65461;SDS011;53236;43.666;18.444;2022-07-29T15:23:54;5.82;;;4.80;;
65461;SDS011;53236;43.666;18.444;2022-07-29T15:26:20;7.60;;;5.10;;
65461;SDS011;53236;43.666;18.444;2022-07-29T15:28:46;6.93;;;4.80;;
65461;SDS011;53236;43.666;18.444;2022-07-29T15:31:12;9.32;;;5.18;;
65461;SDS011;53236;43.666;18.444;2022-07-29T15:33:37;6.68;;;5.25;;
65461;SDS011;53236;43.666;18.444;2022-07-29T15:36:04;12.32;;;5.97;;
65461;SDS011;53236;43.666;18.444;2022-07-29T15:38:30;6.03;;;5.28;;
65461;SDS011;53236;43.666;18.444;2022-07-29T15:40:56;6.88;;;5.30;;
65461;SDS011;53236;43.666;18.444;2022-07-29T15:43:22;6.40;;;4.93;;
65461;SDS011;53236;43.666;18.444;2022-07-29T15:45:48;9.35;;;5.15;;
65461;SDS011;53236;43.666;18.444;2022-07-29T15:48:32;5.90;;;5.30;;
65461;SDS011;53236;43.666;18.444;2022-07-29T15:50:58;8.10;;;5.45;;
65461;SDS011;53236;43.666;18.444;2022-07-29T15:53:24;10.80;;;5.78;;
65461;SDS011;53236;43.666;18.444;2022-07-29T15:55:50;9.85;;;5.53;;
65461;SDS011;53236;43.666;18.444;2022-07-29T15:58:16;8.05;;;5.80;;
65461;SDS011;53236;43.666;18.444;2022-07-29T16:00:42;10.27;;;5.90;;
65461;SDS011;53236;43.666;18.444;2022-07-29T16:03:07;7.03;;;4.90;;
65461;SDS011;53236;43.666;18.444;2022-07-29T16:05:33;6.30;;;5.22;;
65461;SDS011;53236;43.666;18.444;2022-07-29T16:07:59;10.30;;;5.43;;
65461;SDS011;53236;43.666;18.444;2022-07-29T16:10:25;8.88;;;5.63;;
65461;SDS011;53236;43.666;18.444;2022-07-29T16:12:51;10.63;;;6.35;;
65461;SDS011;53236;43.666;18.444;2022-07-29T16:15:16;10.60;;;5.47;;
65461;SDS011;53236;43.666;18.444;2022-07-29T16:17:42;7.55;;;5.43;;
65461;SDS011;53236;43.666;18.444;2022-07-29T16:20:08;15.65;;;6.05;;
65461;SDS011;53236;43.666;18.444;2022-07-29T16:22:34;11.70;;;6.20;;
65461;SDS011;53236;43.666;18.444;2022-07-29T16:25:00;11.38;;;5.82;;
65461;SDS011;53236;43.666;18.444;2022-07-29T16:27:26;13.45;;;6.40;;
65461;SDS011;53236;43.666;18.444;2022-07-29T16:29:54;15.35;;;5.95;;
65461;SDS011;53236;43.666;18.444;2022-07-29T16:32:20;7.63;;;5.90;;
65461;SDS011;53236;43.666;18.444;2022-07-29T16:34:46;8.38;;;6.00;;
65461;SDS011;53236;43.666;18.444;2022-07-29T16:37:12;7.60;;;5.60;;
65461;SDS011;53236;43.666;18.444;2022-07-29T16:39:39;7.72;;;5.72;;
65461;SDS011;53236;43.666;18.444;2022-07-29T16:42:05;16.85;;;5.90;;
65461;SDS011;53236;43.666;18.444;2022-07-29T16:44:30;10.07;;;6.32;;
65461;SDS011;53236;43.666;18.444;2022-07-29T16:46:56;8.82;;;5.78;;
65461;SDS011;53236;43.666;18.444;2022-07-29T16:49:22;7.35;;;5.97;;
65461;SDS011;53236;43.666;18.444;2022-07-29T16:51:48;7.97;;;5.97;;
65461;SDS011;53236;43.666;18.444;2022-07-29T16:54:13;10.32;;;6.30;;
65461;SDS011;53236;43.666;18.444;2022-07-29T16:56:39;10.50;;;7.03;;
65461;SDS011;53236;43.666;18.444;2022-07-29T16:59:05;10.68;;;6.05;;
65461;SDS011;53236;43.666;18.444;2022-07-29T17:01:30;8.45;;;6.22;;
65461;SDS011;53236;43.666;18.444;2022-07-29T17:03:56;6.82;;;5.97;;
65461;SDS011;53236;43.666;18.444;2022-07-29T17:06:35;8.43;;;6.72;;
65461;SDS011;53236;43.666;18.444;2022-07-29T17:09:05;9.15;;;6.13;;
65461;SDS011;53236;43.666;18.444;2022-07-29T17:11:33;7.53;;;6.22;;
65461;SDS011;53236;43.666;18.444;2022-07-29T17:13:59;7.63;;;6.63;;
65461;SDS011;53236;43.666;18.444;2022-07-29T17:16:25;10.90;;;7.00;;
65461;SDS011;53236;43.666;18.444;2022-07-29T17:18:52;8.40;;;6.80;;
65461;SDS011;53236;43.666;18.444;2022-07-29T17:21:19;8.18;;;7.25;;
65461;SDS011;53236;43.666;18.444;2022-07-29T17:23:45;7.90;;;6.95;;
65461;SDS011;53236;43.666;18.444;2022-07-29T17:26:11;7.82;;;6.93;;
65461;SDS011;53236;43.666;18.444;2022-07-29T17:28:37;10.13;;;7.10;;
65461;SDS011;53236;43.666;18.444;2022-07-29T17:31:02;11.23;;;7.55;;
65461;SDS011;53236;43.666;18.444;2022-07-29T17:33:28;9.18;;;7.18;;
65461;SDS011;53236;43.666;18.444;2022-07-29T17:35:54;13.50;;;7.22;;
65461;SDS011;53236;43.666;18.444;2022-07-29T17:38:38;11.32;;;7.18;;
65461;SDS011;53236;43.666;18.444;2022-07-29T17:41:03;10.82;;;8.02;;
65461;SDS011;53236;43.666;18.444;2022-07-29T17:43:29;15.13;;;7.75;;
65461;SDS011;53236;43.666;18.444;2022-07-29T17:45:55;12.60;;;7.68;;
65461;SDS011;53236;43.666;18.444;2022-07-29T17:48:20;13.65;;;8.25;;
65461;SDS011;53236;43.666;18.444;2022-07-29T17:50:46;8.82;;;7.68;;
65461;SDS011;53236;43.666;18.444;2022-07-29T17:53:13;9.98;;;7.78;;
65461;SDS011;53236;43.666;18.444;2022-07-29T17:55:39;12.40;;;8.25;;
65461;SDS011;53236;43.666;18.444;2022-07-29T17:58:05;12.68;;;7.57;;
65461;SDS011;53236;43.666;18.444;2022-07-29T18:00:33;10.82;;;8.02;;
65461;SDS011;53236;43.666;18.444;2022-07-29T18:02:58;9.55;;;7.35;;
65461;SDS011;53236;43.666;18.444;2022-07-29T18:05:24;14.20;;;9.27;;
65461;SDS011;53236;43.666;18.444;2022-07-29T18:07:50;9.73;;;7.53;;
65461;SDS011;53236;43.666;18.444;2022-07-29T18:10:16;11.18;;;7.90;;
65461;SDS011;53236;43.666;18.444;2022-07-29T18:12:42;10.02;;;7.63;;
65461;SDS011;53236;43.666;18.444;2022-07-29T18:15:07;10.38;;;8.32;;
65461;SDS011;53236;43.666;18.444;2022-07-29T18:17:33;12.43;;;8.15;;
65461;SDS011;53236;43.666;18.444;2022-07-29T18:19:59;10.50;;;7.43;;
65461;SDS011;53236;43.666;18.444;2022-07-29T18:22:25;9.90;;;8.05;;
65461;SDS011;53236;43.666;18.444;2022-07-29T18:24:50;10.63;;;8.38;;
65461;SDS011;53236;43.666;18.444;2022-07-29T18:27:16;10.40;;;8.02;;
65461;SDS011;53236;43.666;18.444;2022-07-29T18:29:41;10.90;;;7.80;;
65461;SDS011;53236;43.666;18.444;2022-07-29T18:32:07;10.85;;;8.32;;
65461;SDS011;53236;43.666;18.444;2022-07-29T18:34:33;9.82;;;8.10;;
65461;SDS011;53236;43.666;18.444;2022-07-29T18:36:59;10.27;;;7.90;;
65461;SDS011;53236;43.666;18.444;2022-07-29T18:39:24;10.25;;;8.57;;
65461;SDS011;53236;43.666;18.444;2022-07-29T18:41:50;11.63;;;9.02;;
65461;SDS011;53236;43.666;18.444;2022-07-29T18:44:16;12.68;;;9.63;;
65461;SDS011;53236;43.666;18.444;2022-07-29T18:46:45;15.05;;;11.65;;
65461;SDS011;53236;43.666;18.444;2022-07-29T18:49:11;14.95;;;10.88;;
65461;SDS011;53236;43.666;18.444;2022-07-29T18:51:40;14.77;;;10.02;;
65461;SDS011;53236;43.666;18.444;2022-07-29T18:54:24;13.13;;;9.60;;
65461;SDS011;53236;43.666;18.444;2022-07-29T18:56:49;11.60;;;8.85;;
65461;SDS011;53236;43.666;18.444;2022-07-29T18:59:15;16.65;;;9.45;;
65461;SDS011;53236;43.666;18.444;2022-07-29T19:01:43;11.32;;;9.45;;
65461;SDS011;53236;43.666;18.444;2022-07-29T19:04:09;22.20;;;9.80;;
65461;SDS011;53236;43.666;18.444;2022-07-29T19:06:35;12.80;;;10.18;;
65461;SDS011;53236;43.666;18.444;2022-07-29T19:09:01;15.18;;;10.30;;
65461;SDS011;53236;43.666;18.444;2022-07-29T19:11:27;15.43;;;12.57;;
65461;SDS011;53236;43.666;18.444;2022-07-29T19:13:52;20.85;;;15.45;;
65461;SDS011;53236;43.666;18.444;2022-07-29T19:16:18;17.45;;;14.10;;
65461;SDS011;53236;43.666;18.444;2022-07-29T19:18:44;17.15;;;12.48;;
65461;SDS011;53236;43.666;18.444;2022-07-29T19:21:11;15.00;;;10.88;;
65461;SDS011;53236;43.666;18.444;2022-07-29T19:23:37;12.35;;;10.70;;
65461;SDS011;53236;43.666;18.444;2022-07-29T19:26:03;13.18;;;10.65;;
65461;SDS011;53236;43.666;18.444;2022-07-29T19:28:29;15.02;;;11.88;;
65461;SDS011;53236;43.666;18.444;2022-07-29T19:30:55;11.52;;;10.10;;
65461;SDS011;53236;43.666;18.444;2022-07-29T19:33:20;12.40;;;11.10;;
65461;SDS011;53236;43.666;18.444;2022-07-29T19:35:46;13.38;;;11.02;;
65461;SDS011;53236;43.666;18.444;2022-07-29T19:38:12;13.73;;;10.30;;
65461;SDS011;53236;43.666;18.444;2022-07-29T19:40:38;13.88;;;10.93;;
65461;SDS011;53236;43.666;18.444;2022-07-29T19:43:04;12.75;;;10.32;;
65461;SDS011;53236;43.666;18.444;2022-07-29T19:45:30;13.13;;;10.95;;
65461;SDS011;53236;43.666;18.444;2022-07-29T19:47:57;11.93;;;10.60;;
65461;SDS011;53236;43.666;18.444;2022-07-29T19:50:23;15.10;;;10.98;;
65461;SDS011;53236;43.666;18.444;2022-07-29T19:52:49;13.82;;;11.00;;
65461;SDS011;53236;43.666;18.444;2022-07-29T19:55:16;13.85;;;11.48;;
65461;SDS011;53236;43.666;18.444;2022-07-29T19:57:41;19.02;;;12.63;;
65461;SDS011;53236;43.666;18.444;2022-07-29T20:00:07;17.25;;;13.05;;
65461;SDS011;53236;43.666;18.444;2022-07-29T20:02:34;16.15;;;12.80;;
65461;SDS011;53236;43.666;18.444;2022-07-29T20:05:00;17.40;;;13.20;;
65461;SDS011;53236;43.666;18.444;2022-07-29T20:07:26;21.55;;;13.82;;
65461;SDS011;53236;43.666;18.444;2022-07-29T20:09:52;20.02;;;13.93;;
65461;SDS011;53236;43.666;18.444;2022-07-29T20:12:19;18.75;;;13.00;;
65461;SDS011;53236;43.666;18.444;2022-07-29T20:14:46;18.00;;;13.60;;
65461;SDS011;53236;43.666;18.444;2022-07-29T20:17:12;17.17;;;12.75;;
65461;SDS011;53236;43.666;18.444;2022-07-29T20:19:38;17.63;;;13.57;;
65461;SDS011;53236;43.666;18.444;2022-07-29T20:22:04;15.23;;;12.75;;
65461;SDS011;53236;43.666;18.444;2022-07-29T20:24:30;15.60;;;11.85;;
65461;SDS011;53236;43.666;18.444;2022-07-29T20:26:56;15.82;;;12.45;;
65461;SDS011;53236;43.666;18.444;2022-07-29T20:29:22;16.65;;;13.35;;
65461;SDS011;53236;43.666;18.444;2022-07-29T20:31:47;14.77;;;11.73;;
65461;SDS011;53236;43.666;18.444;2022-07-29T20:34:13;16.08;;;12.20;;
65461;SDS011;53236;43.666;18.444;2022-07-29T20:36:39;17.02;;;11.88;;
65461;SDS011;53236;43.666;18.444;2022-07-29T20:39:05;16.45;;;12.70;;
65461;SDS011;53236;43.666;18.444;2022-07-29T20:41:31;18.73;;;13.52;;
65461;SDS011;53236;43.666;18.444;2022-07-29T20:43:59;19.80;;;13.98;;
65461;SDS011;53236;43.666;18.444;2022-07-29T20:46:25;20.65;;;14.57;;
65461;SDS011;53236;43.666;18.444;2022-07-29T20:48:51;24.35;;;14.57;;
65461;SDS011;53236;43.666;18.444;2022-07-29T20:51:17;24.50;;;14.38;;
65461;SDS011;53236;43.666;18.444;2022-07-29T20:53:44;16.42;;;13.65;;
65461;SDS011;53236;43.666;18.444;2022-07-29T20:56:10;18.08;;;13.25;;
65461;SDS011;53236;43.666;18.444;2022-07-29T20:58:39;19.73;;;13.40;;
65461;SDS011;53236;43.666;18.444;2022-07-29T21:01:06;21.08;;;14.77;;
65461;SDS011;53236;43.666;18.444;2022-07-29T21:03:32;19.65;;;14.93;;
65461;SDS011;53236;43.666;18.444;2022-07-29T21:05:58;20.38;;;15.07;;
65461;SDS011;53236;43.666;18.444;2022-07-29T21:08:24;19.25;;;14.43;;
65461;SDS011;53236;43.666;18.444;2022-07-29T21:10:50;20.17;;;14.45;;
65461;SDS011;53236;43.666;18.444;2022-07-29T21:13:16;22.38;;;14.65;;
65461;SDS011;53236;43.666;18.444;2022-07-29T21:15:44;22.48;;;15.55;;
65461;SDS011;53236;43.666;18.444;2022-07-29T21:18:13;22.05;;;15.48;;
65461;SDS011;53236;43.666;18.444;2022-07-29T21:20:54;27.27;;;17.70;;
65461;SDS011;53236;43.666;18.444;2022-07-29T21:23:24;30.52;;;18.95;;
65461;SDS011;53236;43.666;18.444;2022-07-29T21:25:50;26.30;;;17.20;;
65461;SDS011;53236;43.666;18.444;2022-07-29T21:28:16;22.30;;;16.08;;
65461;SDS011;53236;43.666;18.444;2022-07-29T21:30:57;19.55;;;15.32;;
65461;SDS011;53236;43.666;18.444;2022-07-29T21:33:25;20.98;;;14.38;;
65461;SDS011;53236;43.666;18.444;2022-07-29T21:35:52;27.17;;;15.40;;
65461;SDS011;53236;43.666;18.444;2022-07-29T21:38:18;20.20;;;15.23;;
65461;SDS011;53236;43.666;18.444;2022-07-29T21:40:44;21.63;;;15.77;;
65461;SDS011;53236;43.666;18.444;2022-07-29T21:43:11;19.80;;;15.38;;
65461;SDS011;53236;43.666;18.444;2022-07-29T21:45:37;21.60;;;15.48;;
65461;SDS011;53236;43.666;18.444;2022-07-29T21:48:03;21.63;;;15.95;;
65461;SDS011;53236;43.666;18.444;2022-07-29T21:50:29;29.05;;;16.15;;
65461;SDS011;53236;43.666;18.444;2022-07-29T21:52:55;17.90;;;15.43;;
65461;SDS011;53236;43.666;18.444;2022-07-29T21:55:21;17.58;;;14.88;;
65461;SDS011;53236;43.666;18.444;2022-07-29T21:57:47;17.77;;;14.85;;
65461;SDS011;53236;43.666;18.444;2022-07-29T22:00:12;20.05;;;15.95;;
65461;SDS011;53236;43.666;18.444;2022-07-29T22:02:40;23.02;;;15.77;;
65461;SDS011;53236;43.666;18.444;2022-07-29T22:05:09;22.10;;;16.53;;
65461;SDS011;53236;43.666;18.444;2022-07-29T22:07:36;25.13;;;15.68;;
65461;SDS011;53236;43.666;18.444;2022-07-29T22:10:03;22.35;;;16.67;;
65461;SDS011;53236;43.666;18.444;2022-07-29T22:12:29;21.52;;;16.05;;
65461;SDS011;53236;43.666;18.444;2022-07-29T22:14:55;23.03;;;17.07;;
65461;SDS011;53236;43.666;18.444;2022-07-29T22:17:21;27.90;;;17.67;;
65461;SDS011;53236;43.666;18.444;2022-07-29T22:19:50;19.23;;;16.00;;
65461;SDS011;53236;43.666;18.444;2022-07-29T22:22:16;22.30;;;15.20;;
65461;SDS011;53236;43.666;18.444;2022-07-29T22:24:42;22.63;;;16.47;;
65461;SDS011;53236;43.666;18.444;2022-07-29T22:27:08;21.30;;;17.67;;
65461;SDS011;53236;43.666;18.444;2022-07-29T22:29:34;23.40;;;17.03;;
65461;SDS011;53236;43.666;18.444;2022-07-29T22:32:00;22.77;;;16.80;;
65461;SDS011;53236;43.666;18.444;2022-07-29T22:34:25;21.13;;;16.85;;
65461;SDS011;53236;43.666;18.444;2022-07-29T22:36:51;22.10;;;17.87;;
65461;SDS011;53236;43.666;18.444;2022-07-29T22:39:17;21.50;;;17.30;;
65461;SDS011;53236;43.666;18.444;2022-07-29T22:41:42;23.43;;;17.40;;
65461;SDS011;53236;43.666;18.444;2022-07-29T22:44:08;24.17;;;17.63;;
65461;SDS011;53236;43.666;18.444;2022-07-29T22:46:34;22.17;;;17.13;;
65461;SDS011;53236;43.666;18.444;2022-07-29T22:48:59;22.87;;;18.63;;
65461;SDS011;53236;43.666;18.444;2022-07-29T22:51:25;22.97;;;17.20;;
65461;SDS011;53236;43.666;18.444;2022-07-29T22:53:51;26.63;;;18.30;;
65461;SDS011;53236;43.666;18.444;2022-07-29T22:56:17;24.87;;;17.97;;
65461;SDS011;53236;43.666;18.444;2022-07-29T22:58:44;31.23;;;18.13;;
65461;SDS011;53236;43.666;18.444;2022-07-29T23:01:10;24.73;;;19.07;;
65461;SDS011;53236;43.666;18.444;2022-07-29T23:03:35;22.77;;;18.93;;
65461;SDS011;53236;43.666;18.444;2022-07-29T23:06:02;23.43;;;18.37;;
65461;SDS011;53236;43.666;18.444;2022-07-29T23:08:28;21.43;;;17.70;;
65461;SDS011;53236;43.666;18.444;2022-07-29T23:10:53;25.07;;;19.63;;
65461;SDS011;53236;43.666;18.444;2022-07-29T23:13:19;22.80;;;18.60;;
65461;SDS011;53236;43.666;18.444;2022-07-29T23:15:45;21.27;;;17.90;;
65461;SDS011;53236;43.666;18.444;2022-07-29T23:18:10;21.37;;;17.77;;
65461;SDS011;53236;43.666;18.444;2022-07-29T23:20:36;24.23;;;18.23;;
65461;SDS011;53236;43.666;18.444;2022-07-29T23:23:02;22.90;;;18.47;;
65461;SDS011;53236;43.666;18.444;2022-07-29T23:25:27;22.90;;;18.67;;
65461;SDS011;53236;43.666;18.444;2022-07-29T23:27:53;25.70;;;19.53;;
65461;SDS011;53236;43.666;18.444;2022-07-29T23:30:19;22.50;;;19.10;;
65461;SDS011;53236;43.666;18.444;2022-07-29T23:32:44;26.10;;;19.67;;
65461;SDS011;53236;43.666;18.444;2022-07-29T23:35:10;23.10;;;19.03;;
65461;SDS011;53236;43.666;18.444;2022-07-29T23:37:35;25.60;;;19.63;;
65461;SDS011;53236;43.666;18.444;2022-07-29T23:40:02;27.37;;;18.47;;
65461;SDS011;53236;43.666;18.444;2022-07-29T23:42:28;22.57;;;19.00;;
65461;SDS011;53236;43.666;18.444;2022-07-29T23:44:54;23.70;;;20.10;;
65461;SDS011;53236;43.666;18.444;2022-07-29T23:47:20;24.57;;;19.80;;
65461;SDS011;53236;43.666;18.444;2022-07-29T23:49:46;27.50;;;21.10;;
65461;SDS011;53236;43.666;18.444;2022-07-29T23:52:13;23.63;;;20.07;;
65461;SDS011;53236;43.666;18.444;2022-07-29T23:54:40;24.80;;;20.57;;
65461;SDS011;53236;43.666;18.444;2022-07-29T23:57:05;25.67;;;20.63;;
65461;SDS011;53236;43.666;18.444;2022-07-29T23:59:31;25.77;;;19.63;;
